Terminal Aerodrome Forecast
Issued by NWS

Home | Current Version | Previous Version | Text Only | Print | Product List | Glossary On
Versions: 1 2 3 4 5 6 7 8 9 10 11 12 13 14 15 16 17
000
FTUS46 KLOX 261100 RRA
TAFPMD
TAF
KPMD 261144Z 2612/2712 VRB03KT P6SM SKC
     FM261800 05008KT P6SM SKC
     FM270200 11007KT P6SM SKC
     FM270600 VRB03KT P6SM SKC=

USA.gov is the U.S. government's official web portal to all federal, state and local government web resources and services.